Time;durP1;ratioP1;P1;durP2;ratioP2;P2;SDS_P1;SDS_P2;PMS_P1;PMS_P2;Temp;Humidity;BMP_temperature;BMP_pressure;BME280_temperature;BME280_humidity;BME280_pressure;Samples;Min_cycle;Max_cycle;Signal;HPM_P1;HPM_P2
2021/07/17 00:01:11;;;;;;;21.63;10.60;;;19.30;99.80;;;;;;6169689;23;20431;-89
2021/07/17 00:03:41;;;;;;;15.93;11.63;;;19.20;99.80;;;;;;6119824;23;20480;-89
2021/07/17 00:06:30;;;;;;;23.47;11.43;;;19.20;99.80;;;;;;6135814;23;20491;-90
2021/07/17 00:09:06;;;;;;;21.13;11.93;;;19.20;99.80;;;;;;6173515;23;20513;-89
2021/07/17 00:14:49;;;;;;;24.87;12.07;;;19.20;99.80;;;;;;6153811;23;20473;-89
2021/07/17 00:21:35;;;;;;;16.97;10.20;;;19.20;99.80;;;;;;6140303;23;20525;-90
2021/07/17 00:27:15;;;;;;;29.87;11.70;;;19.20;99.80;;;;;;6110922;23;20433;-90
2021/07/17 00:30:04;;;;;;;20.50;12.60;;;19.20;99.80;;;;;;6116066;23;20453;-90
2021/07/17 00:36:10;;;;;;;22.73;11.87;;;19.20;99.80;;;;;;6107590;23;21121;-90
2021/07/17 00:38:46;;;;;;;21.13;11.23;;;19.20;99.80;;;;;;6133572;23;20760;-90
2021/07/17 00:41:15;;;;;;;28.10;11.37;;;19.20;99.80;;;;;;6157498;23;21014;-90
2021/07/17 00:44:02;;;;;;;20.37;11.40;;;19.10;99.80;;;;;;6135023;23;20983;-88
2021/07/17 00:46:33;;;;;;;25.93;11.33;;;19.10;99.80;;;;;;6167365;23;20456;-89
2021/07/17 00:49:14;;;;;;;18.93;10.93;;;19.10;99.80;;;;;;6150973;23;20454;-90
2021/07/17 00:51:50;;;;;;;16.10;11.20;;;19.10;99.80;;;;;;6123958;23;20440;-90
2021/07/17 01:06:39;;;;;;;21.90;10.63;;;19.00;99.80;;;;;;6156059;23;20404;-90
2021/07/17 01:13:53;;;;;;;14.20;10.60;;;19.00;99.80;;;;;;6050976;23;20481;-90
2021/07/17 06:07:14;;;;;;;7.97;7.07;;;19.50;99.80;;;;;;6146560;23;20429;-90
2021/07/17 06:09:43;;;;;;;11.23;7.40;;;19.60;99.80;;;;;;6141643;23;20441;-89
2021/07/17 06:12:12;;;;;;;13.70;7.77;;;19.60;99.80;;;;;;6128699;23;20474;-89
2021/07/17 06:14:40;;;;;;;11.60;6.97;;;19.60;99.80;;;;;;6108418;23;20517;-89
2021/07/17 06:17:11;;;;;;;7.87;6.40;;;19.70;99.80;;;;;;6112380;23;20435;-89
2021/07/17 06:19:40;;;;;;;7.33;6.60;;;19.70;99.80;;;;;;6108211;23;20966;-89
2021/07/17 06:22:09;;;;;;;16.93;7.37;;;19.70;99.80;;;;;;6111448;23;20439;-88
2021/07/17 06:24:38;;;;;;;10.00;8.10;;;19.70;99.80;;;;;;6102635;23;20769;-88
2021/07/17 06:27:07;;;;;;;12.10;7.13;;;19.70;99.80;;;;;;6103280;23;20514;-88
2021/07/17 06:29:35;;;;;;;11.33;7.70;;;19.80;99.80;;;;;;6106648;23;20434;-88
2021/07/17 06:32:04;;;;;;;9.27;7.20;;;19.80;99.80;;;;;;6106976;23;20442;-89
2021/07/17 06:34:32;;;;;;;13.37;7.20;;;19.80;99.80;;;;;;6112442;23;20441;-88
2021/07/17 06:37:00;;;;;;;9.10;6.97;;;19.80;99.80;;;;;;6118009;23;20435;-88
2021/07/17 06:39:29;;;;;;;9.33;7.57;;;19.70;99.80;;;;;;6118642;23;20779;-89
2021/07/17 06:41:58;;;;;;;10.10;7.77;;;19.70;99.80;;;;;;6105868;23;20449;-89
2021/07/17 06:44:27;;;;;;;9.57;7.20;;;;;;;;;;6095721;23;20446;-89
2021/07/17 06:46:55;;;;;;;8.47;7.07;;;19.70;99.80;;;;;;6100683;23;20435;-90
2021/07/17 06:49:23;;;;;;;8.87;6.77;;;;;;;;;;6113782;23;20465;-89
2021/07/17 06:54:20;;;;;;;7.23;6.07;;;20.00;99.80;;;;;;6108863;23;20765;-84
2021/07/17 06:56:48;;;;;;;9.30;7.17;;;;;;;;;;6116837;23;20838;-85
2021/07/17 06:59:17;;;;;;;9.17;6.77;;;20.50;99.80;;;;;;6119309;23;20443;-85
2021/07/17 07:01:45;;;;;;;9.40;8.00;;;20.80;99.80;;;;;;6119767;23;20445;-88
2021/07/17 07:04:14;;;;;;;11.80;6.77;;;;;;;;;;6090370;23;20932;-88
2021/07/17 07:06:43;;;;;;;13.83;6.80;;;21.20;99.80;;;;;;6090837;23;20431;-88
2021/07/17 07:09:11;;;;;;;7.03;6.43;;;;;;;;;;6090444;23;20435;-87
2021/07/17 07:11:39;;;;;;;8.50;7.60;;;21.50;99.80;;;;;;6090557;23;20436;-87
2021/07/17 07:14:08;;;;;;;7.43;6.60;;;;;;;;;;6090930;23;20474;-88
2021/07/17 07:16:37;;;;;;;7.60;6.30;;;21.40;99.80;;;;;;6091518;23;20483;-88
2021/07/17 07:19:06;;;;;;;9.53;6.13;;;;;;;;;;6119999;23;20506;-87
2021/07/17 07:21:34;;;;;;;8.70;7.33;;;;;;;;;;6119769;23;20441;-87
2021/07/17 07:24:02;;;;;;;11.50;7.60;;;20.90;99.80;;;;;;6119313;23;20449;-84
2021/07/17 07:26:30;;;;;;;10.33;7.70;;;20.80;99.80;;;;;;6119211;23;20453;-84
2021/07/17 07:28:58;;;;;;;12.40;7.23;;;20.80;99.80;;;;;;6118796;23;20774;-84
2021/07/17 07:31:27;;;;;;;8.13;7.30;;;20.90;99.80;;;;;;6119249;23;20453;-84
2021/07/17 07:33:57;;;;;;;8.30;6.90;;;21.00;99.80;;;;;;6118945;23;20469;-84
2021/07/17 07:36:25;;;;;;;9.43;7.30;;;21.20;99.80;;;;;;6119291;23;21002;-84
2021/07/17 07:38:53;;;;;;;7.87;7.10;;;21.40;99.80;;;;;;6118366;23;20438;-85
2021/07/17 07:41:21;;;;;;;9.30;7.23;;;21.80;99.80;;;;;;6118915;23;20510;-84
2021/07/17 07:43:49;;;;;;;10.17;7.93;;;22.00;99.80;;;;;;6118777;23;20449;-84
2021/07/17 07:46:17;;;;;;;11.13;7.87;;;22.30;99.80;;;;;;6118999;23;20537;-84
2021/07/17 07:48:45;;;;;;;11.53;7.10;;;22.60;99.80;;;;;;6119357;23;21016;-84
2021/07/17 07:51:14;;;;;;;11.37;8.23;;;22.80;99.80;;;;;;6119111;23;20430;-84
2021/07/17 07:53:42;;;;;;;9.40;7.73;;;22.90;99.80;;;;;;6119645;23;20435;-86
2021/07/17 07:56:10;;;;;;;8.70;6.83;;;22.80;99.80;;;;;;6120204;23;20431;-86
2021/07/17 07:58:38;;;;;;;10.10;8.80;;;22.70;99.80;;;;;;6119766;23;20439;-85
2021/07/17 08:01:06;;;;;;;9.77;7.40;;;22.50;99.80;;;;;;6119227;23;20439;-87
2021/07/17 08:03:35;;;;;;;8.13;7.33;;;22.40;99.80;;;;;;6118216;23;20774;-87
2021/07/17 08:06:03;;;;;;;11.90;8.13;;;22.30;99.80;;;;;;6118340;23;20455;-86
2021/07/17 08:08:32;;;;;;;8.60;7.27;;;22.30;99.80;;;;;;6117598;23;20533;-86
2021/07/17 08:11:01;;;;;;;12.57;8.57;;;22.30;99.80;;;;;;6118035;23;20478;-86
2021/07/17 08:13:29;;;;;;;9.67;7.50;;;22.30;99.80;;;;;;6118462;23;20750;-86
2021/07/17 08:16:01;;;;;;;14.60;7.40;;;22.40;99.80;;;;;;6118351;23;22283;-86
2021/07/17 08:18:29;;;;;;;10.93;7.70;;;22.60;99.80;;;;;;6118459;23;20461;-86
2021/07/17 08:20:58;;;;;;;7.63;6.93;;;23.00;99.80;;;;;;6117338;23;20437;-87
2021/07/17 08:23:26;;;;;;;8.53;7.10;;;23.30;99.80;;;;;;6116944;23;20895;-86
2021/07/17 08:25:55;;;;;;;10.67;7.97;;;23.40;99.80;;;;;;6118158;23;20446;-86
2021/07/17 08:28:23;;;;;;;10.57;7.50;;;23.50;99.80;;;;;;6117959;23;20435;-87
2021/07/17 08:30:51;;;;;;;11.87;8.37;;;23.60;99.80;;;;;;6118009;23;20446;-87
2021/07/17 08:33:19;;;;;;;9.53;7.90;;;23.70;99.80;;;;;;6117470;23;20446;-87
2021/07/17 08:35:47;;;;;;;9.77;7.10;;;23.80;99.80;;;;;;6117923;23;20942;-87
2021/07/17 08:38:15;;;;;;;10.13;7.43;;;23.90;99.80;;;;;;6119401;23;20435;-88
2021/07/17 08:40:51;;;;;;;11.50;7.77;;;24.00;99.80;;;;;;6120389;23;20767;-84
2021/07/17 08:43:21;;;;;;;10.80;7.87;;;24.00;99.80;;;;;;6119935;23;20470;-84
2021/07/17 08:45:50;;;;;;;8.80;7.90;;;24.10;99.80;;;;;;6120004;23;20517;-84
2021/07/17 08:48:20;;;;;;;8.00;6.87;;;24.10;99.80;;;;;;6118940;23;20439;-84
2021/07/17 08:50:49;;;;;;;13.40;7.40;;;24.00;99.80;;;;;;6118081;23;20438;-85
2021/07/17 08:53:18;;;;;;;9.27;8.37;;;23.90;99.80;;;;;;6118308;23;20469;-84
2021/07/17 08:55:47;;;;;;;15.43;8.10;;;24.00;99.80;;;;;;6116639;23;20516;-84
2021/07/17 08:58:16;;;;;;;8.77;7.47;;;;;;;;;;6117950;23;20428;-86
2021/07/17 09:00:46;;;;;;;9.93;8.03;;;24.30;99.80;;;;;;6117828;23;20435;-87
2021/07/17 09:03:17;;;;;;;12.77;7.57;;;24.40;99.80;;;;;;6117868;23;20438;-86
2021/07/17 09:05:49;;;;;;;10.40;7.40;;;24.30;99.80;;;;;;6118588;23;20821;-86
2021/07/17 09:08:18;;;;;;;8.93;8.03;;;24.40;99.80;;;;;;6118654;23;20470;-85
2021/07/17 09:10:49;;;;;;;8.30;7.50;;;24.50;99.80;;;;;;6118526;23;20458;-86
2021/07/17 09:13:20;;;;;;;9.70;7.80;;;24.60;99.80;;;;;;6118066;23;20442;-88
2021/07/17 09:16:02;;;;;;;12.93;7.80;;;24.60;99.80;;;;;;6118306;23;20439;-88
2021/07/17 09:18:36;;;;;;;13.30;8.27;;;24.50;99.80;;;;;;6118476;23;20442;-89
2021/07/17 09:21:08;;;;;;;10.40;7.27;;;24.40;99.80;;;;;;6118210;23;20918;-86
2021/07/17 09:23:40;;;;;;;10.40;8.30;;;24.40;99.80;;;;;;6118101;23;20443;-87
2021/07/17 09:26:20;;;;;;;10.07;7.60;;;24.60;99.80;;;;;;6117645;23;20426;-86
2021/07/17 09:28:56;;;;;;;15.37;8.00;;;24.90;99.80;;;;;;6116791;23;20444;-86
2021/07/17 09:31:27;;;;;;;7.93;6.60;;;25.00;99.80;;;;;;6116292;23;20444;-86
2021/07/17 09:34:04;;;;;;;9.70;7.60;;;24.90;99.80;;;;;;6117922;23;20508;-83
2021/07/17 09:36:32;;;;;;;9.20;7.97;;;25.00;99.80;;;;;;6117267;23;20445;-82
2021/07/17 09:39:00;;;;;;;7.23;6.60;;;25.30;99.80;;;;;;6104634;23;20501;-83
2021/07/17 09:41:29;;;;;;;9.23;7.10;;;;;;;;;;6116116;23;20446;-86
2021/07/17 09:44:02;;;;;;;11.17;7.00;;;25.30;98.70;;;;;;6077143;23;20972;-87
2021/07/17 09:46:32;;;;;;;12.17;7.13;;;25.30;99.80;;;;;;6088647;23;20440;-85
2021/07/17 09:49:04;;;;;;;8.07;7.27;;;25.40;99.80;;;;;;6100517;23;20826;-85
2021/07/17 09:51:34;;;;;;;8.30;7.40;;;25.60;99.00;;;;;;6116116;23;20457;-85
2021/07/17 09:54:05;;;;;;;11.67;6.83;;;25.50;98.90;;;;;;6101966;23;20456;-85
2021/07/17 09:56:35;;;;;;;9.77;7.77;;;25.60;99.80;;;;;;6050251;23;20445;-85
2021/07/17 09:59:07;;;;;;;8.90;7.80;;;25.80;99.20;;;;;;6076569;23;20497;-87
2021/07/17 10:01:37;;;;;;;9.63;7.73;;;25.80;98.20;;;;;;6069614;23;20589;-90
2021/07/17 10:04:08;;;;;;;10.10;6.90;;;25.80;99.80;;;;;;6086685;23;20514;-87
2021/07/17 10:06:42;;;;;;;15.90;7.37;;;25.90;97.90;;;;;;6092385;23;20447;-88
2021/07/17 10:09:24;;;;;;;10.60;7.10;;;25.90;98.90;;;;;;6086811;23;20424;-87
2021/07/17 10:11:54;;;;;;;8.83;7.40;;;26.00;98.80;;;;;;6088156;23;20441;-85
2021/07/17 10:14:24;;;;;;;11.07;7.10;;;26.10;98.40;;;;;;6074717;23;20443;-86
2021/07/17 10:16:56;;;;;;;8.97;7.07;;;26.20;97.20;;;;;;6067802;23;21212;-88
2021/07/17 10:19:25;;;;;;;11.47;8.43;;;26.30;96.60;;;;;;6094452;23;20521;-86
2021/07/17 10:21:54;;;;;;;9.43;6.60;;;26.30;97.00;;;;;;6114081;23;20440;-87
2021/07/17 10:24:24;;;;;;;8.77;7.83;;;26.40;97.70;;;;;;6113807;23;20476;-86
2021/07/17 10:26:53;;;;;;;7.13;6.23;;;26.60;97.40;;;;;;6078022;23;20456;-85
2021/07/17 10:29:22;;;;;;;10.73;7.27;;;26.60;97.70;;;;;;6086161;23;20456;-85
2021/07/17 10:31:52;;;;;;;8.47;7.60;;;26.90;97.10;;;;;;6087344;23;20526;-85
2021/07/17 10:34:22;;;;;;;9.63;6.80;;;27.00;95.70;;;;;;6097019;23;20449;-85
2021/07/17 10:36:56;;;;;;;8.13;7.10;;;27.10;95.90;;;;;;6089576;23;21005;-85
2021/07/17 10:39:27;;;;;;;7.50;6.60;;;27.20;96.30;;;;;;6071680;23;20497;-83
2021/07/17 10:41:57;;;;;;;8.13;6.83;;;27.30;95.90;;;;;;6090284;23;20493;-83
2021/07/17 10:44:41;;;;;;;8.53;7.13;;;27.50;96.00;;;;;;6087899;23;20446;-84
2021/07/17 10:47:10;;;;;;;8.77;6.80;;;27.50;94.80;;;;;;6083641;23;20950;-85
2021/07/17 10:49:41;;;;;;;7.90;6.50;;;27.80;93.70;;;;;;6105660;23;20430;-87
2021/07/17 10:52:10;;;;;;;11.13;8.00;;;27.90;93.10;;;;;;6114380;23;20435;-87
2021/07/17 10:54:38;;;;;;;7.73;6.93;;;28.10;92.10;;;;;;6119387;23;20494;-85
2021/07/17 10:57:07;;;;;;;11.60;6.27;;;;;;;;;;6101194;23;20550;-88
2021/07/17 10:59:45;;;;;;;8.93;8.03;;;;;;;;;;6070678;23;20865;-87
2021/07/17 11:02:25;;;;;;;10.33;7.50;;;;;;;;;;6043124;23;20507;-86
2021/07/17 11:04:58;;;;;;;8.00;7.30;;;;;;;;;;6116269;23;20431;-89
2021/07/17 11:07:36;;;;;;;10.60;7.73;;;;;;;;;;6101111;23;20441;-88
2021/07/17 11:10:09;;;;;;;8.63;7.73;;;;;;;;;;6081611;23;20460;-88
2021/07/17 11:12:45;;;;;;;8.17;7.37;;;;;;;;;;6084994;23;20470;-87
2021/07/17 11:15:31;;;;;;;8.43;6.47;;;;;;;;;;6058487;23;20447;-89
2021/07/17 11:18:00;;;;;;;7.83;7.00;;;;;;;;;;6073518;23;20535;-89
2021/07/17 11:20:33;;;;;;;7.70;7.00;;;;;;;;;;6106666;23;20505;-90
2021/07/17 11:23:02;;;;;;;12.00;6.53;;;;;;;;;;6109753;23;20510;-90
2021/07/17 11:25:30;;;;;;;12.30;7.20;;;;;;;;;;6115666;23;20925;-89
2021/07/17 11:27:59;;;;;;;8.50;7.60;;;;;;;;;;6101496;23;20901;-83
2021/07/17 11:30:32;;;;;;;8.47;6.70;;;;;;;;;;6086874;23;20442;-84
2021/07/17 11:33:21;;;;;;;9.20;6.83;;;;;;;;;;6086200;23;20522;-87
2021/07/17 11:35:51;;;;;;;7.30;6.70;;;;;;;;;;6107464;23;20430;-85
2021/07/17 11:38:19;;;;;;;7.90;6.70;;;;;;;;;;6096762;23;20810;-84
2021/07/17 11:40:48;;;;;;;7.50;6.80;;;;;;;;;;6085227;23;20446;-84
2021/07/17 11:43:16;;;;;;;7.60;6.70;;;;;;;;;;6092229;23;20696;-84
2021/07/17 11:45:44;;;;;;;7.80;6.47;;;;;;;;;;6076625;23;20439;-85
2021/07/17 11:48:14;;;;;;;7.77;7.07;;;;;;;;;;6086665;23;20534;-86
2021/07/17 11:50:43;;;;;;;9.00;7.40;;;;;;;;;;6086455;23;20525;-85
2021/07/17 11:53:14;;;;;;;7.30;6.60;;;;;;;;;;6101373;23;20852;-84
2021/07/17 11:55:43;;;;;;;7.43;6.73;;;;;;;;;;6105704;23;20450;-84
2021/07/17 11:58:17;;;;;;;8.83;7.17;;;;;;;;;;6077475;23;20493;-85
2021/07/17 12:00:46;;;;;;;7.77;6.90;;;;;;;;;;6113447;23;20437;-86
2021/07/17 12:03:17;;;;;;;7.43;6.73;;;;;;;;;;6114904;23;20442;-85
2021/07/17 12:05:49;;;;;;;7.23;6.53;;;;;;;;;;6124707;23;20438;-86
2021/07/17 12:08:23;;;;;;;10.23;6.50;;;;;;;;;;6114717;23;20542;-85
2021/07/17 12:10:52;;;;;;;8.60;7.30;;;;;;;;;;6089451;23;21258;-86
2021/07/17 12:13:21;;;;;;;8.03;6.93;;;;;;;;;;6095570;23;20445;-85
2021/07/17 12:15:49;;;;;;;8.83;6.70;;;;;;;;;;6117143;23;20465;-85
2021/07/17 12:18:18;;;;;;;15.10;8.77;;;;;;;;;;6088922;23;20442;-86
2021/07/17 12:20:48;;;;;;;10.03;6.90;;;;;;;;;;6107628;23;20442;-85
2021/07/17 12:23:17;;;;;;;10.90;7.57;;;;;;;;;;6106084;23;21225;-86
2021/07/17 12:25:47;;;;;;;12.30;7.13;;;;;;;;;;6107076;23;20460;-86
2021/07/17 12:28:17;;;;;;;7.37;6.67;;;;;;;;;;6096037;23;20875;-85
2021/07/17 12:30:46;;;;;;;9.90;6.83;;;;;;;;;;6097815;23;20437;-84
2021/07/17 12:33:36;;;;;;;8.13;7.43;;;;;;;;;;6116742;23;20438;-86
2021/07/17 12:36:09;;;;;;;9.80;7.83;;;;;;;;;;6106125;23;20435;-86
2021/07/17 12:38:38;;;;;;;8.13;7.27;;;;;;;;;;6113195;23;20450;-84
2021/07/17 12:41:08;;;;;;;19.53;8.40;;;;;;;;;;6113133;23;20435;-85
2021/07/17 12:43:38;;;;;;;9.13;7.47;;;;;;;;;;6104219;23;20453;-85
2021/07/17 12:46:13;;;;;;;7.83;6.97;;;;;;;;;;6112523;23;20449;-87
2021/07/17 12:48:49;;;;;;;9.37;7.63;;;;;;;;;;6111506;23;20445;-86
2021/07/17 12:51:19;;;;;;;9.10;7.90;;;;;;;;;;6109124;23;21030;-85
2021/07/17 12:53:49;;;;;;;8.10;7.30;;;;;;;;;;6095598;23;20502;-86
2021/07/17 12:56:29;;;;;;;9.00;8.03;;;;;;;;;;6114864;23;20448;-85
2021/07/17 12:58:57;;;;;;;8.40;7.53;;;;;;;;;;6114386;23;20429;-86
2021/07/17 13:01:26;;;;;;;10.63;7.20;;;;;;;;;;6074239;23;20434;-84
2021/07/17 13:03:55;;;;;;;8.57;7.03;;;;;;;;;;6126342;23;20993;-85
2021/07/17 13:06:23;;;;;;;8.50;7.67;;;;;;;;;;6111756;23;20439;-82
2021/07/17 13:08:59;;;;;;;7.83;7.03;;;;;;;;;;6104465;23;21164;-84
2021/07/17 13:11:29;;;;;;;7.50;6.80;;;;;;;;;;6112497;23;20430;-86
2021/07/17 13:13:59;;;;;;;7.40;6.70;;;;;;;;;;6095262;23;20446;-85
2021/07/17 13:16:28;;;;;;;11.73;7.10;;;;;;;;;;6114079;23;20457;-83
2021/07/17 13:18:57;;;;;;;11.70;7.13;;;;;;;;;;6123548;23;20437;-86
2021/07/17 13:21:43;;;;;;;9.67;7.80;;;;;;;;;;6114676;23;20430;-85
2021/07/17 13:24:13;;;;;;;10.37;7.00;;;;;;;;;;6081750;23;20444;-90
2021/07/17 13:26:43;;;;;;;8.83;7.60;;;;;;;;;;6113152;23;20434;-88
2021/07/17 13:29:24;;;;;;;9.50;8.10;;;;;;;;;;6083185;23;20434;-89
2021/07/17 13:31:56;;;;;;;10.13;8.60;;;;;;;;;;6100237;23;20434;-88
2021/07/17 13:34:27;;;;;;;9.13;8.23;;;;;;;;;;6068251;23;20442;-89
2021/07/17 13:37:03;;;;;;;15.63;8.60;;;;;;;;;;6096805;23;20462;-88
2021/07/17 13:39:32;;;;;;;17.23;8.97;;;;;;;;;;6103863;23;21056;-89
2021/07/17 13:42:12;;;;;;;9.10;8.20;;;;;;;;;;6115347;23;20470;-88
2021/07/17 13:44:40;;;;;;;10.00;8.33;;;;;;;;;;6099315;23;20449;-90
2021/07/17 13:47:10;;;;;;;11.90;8.97;;;;;;;;;;6121886;23;20953;-89
2021/07/17 13:49:38;;;;;;;25.83;8.13;;;;;;;;;;6104673;23;20445;-90
2021/07/17 13:52:07;;;;;;;9.47;7.97;;;;;;;;;;6117437;23;20443;-90
2021/07/17 13:54:46;;;;;;;12.77;8.90;;;;;;;;;;6105724;23;20441;-89
2021/07/17 13:57:16;;;;;;;9.20;8.30;;;;;;;;;;6105544;23;20435;-88
2021/07/17 13:59:45;;;;;;;8.73;7.93;;;;;;;;;;6101190;23;20434;-88
2021/07/17 14:02:13;;;;;;;12.47;8.70;;;;;;;;;;6094739;23;20450;-90
2021/07/17 14:04:42;;;;;;;18.73;8.97;;;;;;;;;;6110112;23;20504;-88
2021/07/17 14:07:10;;;;;;;11.60;7.90;;;;;;;;;;6101678;23;20434;-91
2021/07/17 14:09:47;;;;;;;11.70;8.73;;;;;;;;;;6056972;23;20442;-90
2021/07/17 14:12:17;;;;;;;16.20;8.50;;;;;;;;;;6040465;23;20447;-91
2021/07/17 14:14:46;;;;;;;10.03;8.53;;;;;;;;;;6077144;23;20435;-91
2021/07/17 14:17:14;;;;;;;8.60;7.70;;;;;;;;;;6084583;23;20435;-91
2021/07/17 14:19:42;;;;;;;8.30;7.60;;;;;;;;;;6121949;23;20441;-89
2021/07/17 14:22:11;;;;;;;13.10;7.50;;;;;;;;;;6118240;23;21195;-90
2021/07/17 14:24:39;;;;;;;13.60;8.10;;;;;;;;;;6116406;23;20441;-87
2021/07/17 14:27:07;;;;;;;15.43;7.70;;;;;;;;;;6086528;23;20445;-87
2021/07/17 14:29:37;;;;;;;10.03;7.50;;;;;;;;;;6076619;23;20442;-90
2021/07/17 14:32:06;;;;;;;10.20;7.50;;;;;;;;;;6090420;23;20430;-90
2021/07/17 14:34:36;;;;;;;8.70;7.80;;;;;;;;;;6097861;23;21133;-91
2021/07/17 14:37:04;;;;;;;12.67;8.00;;;;;;;;;;6094572;23;20435;-89
2021/07/17 14:39:33;;;;;;;9.97;8.37;;;;;;;;;;6074056;23;20450;-90
2021/07/17 14:42:01;;;;;;;8.97;7.90;;;;;;;;;;6072524;23;20445;-88
2021/07/17 14:44:30;;;;;;;13.07;8.20;;;;;;;;;;6085997;23;20438;-91
2021/07/17 14:47:01;;;;;;;10.57;8.00;;;;;;;;;;6091075;23;20502;-91
2021/07/17 14:49:29;;;;;;;15.67;8.07;;;;;;;;;;6103620;23;20522;-89
2021/07/17 14:51:57;;;;;;;9.63;8.63;;;;;;;;;;6114031;23;20446;-90
2021/07/17 14:54:26;;;;;;;9.83;8.37;;;;;;;;;;6103373;23;20462;-90
2021/07/17 14:56:55;;;;;;;9.50;8.30;;;;;;;;;;6102448;23;20432;-92
2021/07/17 14:59:23;;;;;;;13.03;7.80;;;;;;;;;;6088379;23;20451;-88
2021/07/17 15:01:54;;;;;;;10.97;8.90;;;;;;;;;;6077001;23;20431;-89
2021/07/17 15:04:24;;;;;;;9.37;8.33;;;;;;;;;;6102042;23;21030;-89
2021/07/17 15:06:52;;;;;;;10.07;8.53;;;;;;;;;;6117152;23;20439;-89
2021/07/17 15:09:21;;;;;;;9.47;8.50;;;;;;;;;;6079336;23;20449;-88
2021/07/17 15:11:52;;;;;;;41.03;18.50;;;;;;;;;;6088416;23;20443;-89
2021/07/17 15:14:20;;;;;;;11.33;9.13;;;;;;;;;;6094547;23;20958;-90
2021/07/17 15:16:49;;;;;;;12.30;10.00;;;;;;;;;;6087902;23;20441;-89
2021/07/17 15:19:17;;;;;;;13.40;9.70;;;;;;;;;;6085433;23;20744;-89
2021/07/17 15:21:47;;;;;;;10.47;9.37;;;;;;;;;;6110966;23;20441;-89
2021/07/17 15:24:16;;;;;;;11.77;10.10;;;;;;;;;;6094031;23;20442;-89
2021/07/17 15:26:44;;;;;;;11.50;9.63;;;;;;;;;;6106279;23;20439;-87
2021/07/17 15:29:16;;;;;;;12.23;9.83;;;;;;;;;;6098031;23;20497;-86
2021/07/17 15:31:44;;;;;;;12.23;10.47;;;;;;;;;;6105296;23;20435;-86
2021/07/17 15:34:13;;;;;;;11.17;9.30;;;;;;;;;;6113831;23;20442;-85
2021/07/17 15:36:42;;;;;;;9.30;8.40;;;;;;;;;;6110461;23;21140;-86
2021/07/17 15:39:12;;;;;;;10.03;8.30;;;;;;;;;;6109908;23;20534;-85
2021/07/17 15:41:41;;;;;;;8.77;7.77;;;;;;;;;;6107944;23;20431;-89
2021/07/17 15:44:10;;;;;;;9.77;8.00;;;;;;;;;;6099890;23;20561;-89
2021/07/17 15:46:38;;;;;;;8.97;8.10;;;;;;;;;;6108941;23;20446;-88
2021/07/17 15:49:08;;;;;;;14.37;10.07;;;;;;;;;;6101812;23;20493;-88
2021/07/17 15:51:36;;;;;;;11.70;9.33;;;;;;;;;;6109058;23;20431;-85
2021/07/17 15:54:05;;;;;;;9.90;8.90;;;;;;;;;;6101835;23;20983;-86
2021/07/17 15:56:34;;;;;;;14.17;11.57;;;;;;;;;;6104479;23;20443;-87
2021/07/17 15:59:03;;;;;;;11.87;10.60;;;;;;;;;;6096700;23;20442;-89
2021/07/17 16:01:31;;;;;;;10.57;9.00;;;;;;;;;;6075717;23;20463;-90
2021/07/17 16:04:00;;;;;;;11.10;8.97;;;;;;;;;;6101114;23;20822;-90
2021/07/17 16:06:28;;;;;;;8.77;7.87;;;;;;;;;;6114695;23;20444;-89
2021/07/17 16:08:57;;;;;;;9.00;8.10;;;;;;;;;;6116501;23;20441;-91
2021/07/17 16:11:25;;;;;;;9.50;8.03;;;;;;;;;;6103522;23;20442;-92
2021/07/17 16:13:55;;;;;;;11.77;7.97;;;;;;;;;;6103866;23;20442;-90
2021/07/17 16:16:25;;;;;;;9.20;8.13;;;;;;;;;;6091631;23;20435;-91
2021/07/17 16:18:54;;;;;;;10.90;8.00;;;;;;;;;;6115317;23;20442;-89
2021/07/17 16:21:22;;;;;;;7.73;6.97;;;;;;;;;;6114252;23;20967;-90
2021/07/17 16:23:51;;;;;;;8.13;7.23;;;;;;;;;;6102662;23;20449;-90
2021/07/17 16:26:19;;;;;;;8.70;7.73;;;;;;;;;;6110304;23;20525;-88
2021/07/17 16:28:48;;;;;;;9.90;7.80;;;;;;;;;;6098834;23;20435;-87
2021/07/17 16:31:17;;;;;;;10.03;7.57;;;;;;;;;;6089242;23;20450;-88
2021/07/17 16:33:46;;;;;;;10.57;8.03;;;;;;;;;;6109628;23;21242;-87
2021/07/17 16:36:14;;;;;;;10.70;7.93;;;;;;;;;;6116741;23;20439;-86
2021/07/17 16:38:43;;;;;;;9.40;8.10;;;;;;;;;;6098582;23;20485;-89
2021/07/17 16:41:12;;;;;;;11.13;8.40;;;;;;;;;;6115272;23;20438;-91
2021/07/17 16:43:40;;;;;;;9.03;7.20;;;;;;;;;;6106282;23;20441;-92
2021/07/17 16:46:09;;;;;;;14.00;9.00;;;;;;;;;;6112008;23;20505;-92
2021/07/17 16:48:39;;;;;;;10.00;8.50;;;;;;;;;;6114468;23;20462;-92
2021/07/17 16:51:08;;;;;;;11.37;8.50;;;;;;;;;;6114676;23;20430;-92
2021/07/17 16:53:37;;;;;;;11.33;8.13;;;;;;;;;;6102773;23;20858;-92
2021/07/17 16:56:05;;;;;;;9.47;8.47;;;;;;;;;;6085048;23;20513;-91
2021/07/17 16:58:35;;;;;;;11.30;8.80;;;;;;;;;;6081888;23;20442;-93
2021/07/17 17:01:04;;;;;;;15.10;9.60;;;;;;;;;;6092536;23;20526;-93
2021/07/17 17:03:33;;;;;;;14.40;9.27;;;;;;;;;;6107814;23;20444;-92
2021/07/17 17:06:03;;;;;;;10.07;9.07;;;;;;;;;;6111264;23;20524;-90
2021/07/17 17:08:31;;;;;;;11.57;8.33;;;;;;;;;;6106710;23;20438;-91
2021/07/17 17:11:00;;;;;;;11.13;9.33;;;;;;;;;;6101276;23;20768;-91
2021/07/17 17:13:28;;;;;;;14.33;10.17;;;;;;;;;;6108786;23;20502;-92
2021/07/17 17:15:57;;;;;;;10.90;8.90;;;;;;;;;;6088297;23;20449;-90
2021/07/17 17:18:25;;;;;;;10.87;9.20;;;;;;;;;;6109964;23;20445;-90
2021/07/17 17:20:54;;;;;;;11.50;8.63;;;;;;;;;;6120500;23;20835;-91
2021/07/17 17:23:25;;;;;;;14.73;8.83;;;;;;;;;;6123853;23;20451;-91
2021/07/17 17:25:53;;;;;;;11.50;8.40;;;;;;;;;;6126224;23;20564;-90
2021/07/17 17:28:22;;;;;;;11.57;8.20;;;;;;;;;;6123280;23;20443;-89
2021/07/17 17:30:50;;;;;;;17.07;9.20;;;;;;;;;;6122339;23;20454;-90
2021/07/17 17:33:20;;;;;;;15.03;9.40;;;;;;;;;;6122251;23;20453;-91
2021/07/17 17:35:49;;;;;;;12.00;9.10;;;;;;;;;;6122640;23;20435;-91
2021/07/17 17:38:17;;;;;;;11.00;8.50;;;;;;;;;;6122439;23;20542;-90
2021/07/17 17:40:47;;;;;;;15.00;8.73;;;;;;;;;;6122690;23;20435;-91
2021/07/17 17:43:15;;;;;;;7.67;6.63;;;;;;;;;;6122108;23;21154;-88
2021/07/17 17:45:45;;;;;;;8.33;7.10;;;;;;;;;;6120103;23;20438;-91
2021/07/17 17:48:13;;;;;;;9.17;7.17;;;;;;;;;;6121965;23;20442;-90
2021/07/17 17:50:42;;;;;;;13.23;7.50;;;;;;;;;;6120519;23;20775;-88
2021/07/17 17:53:10;;;;;;;12.43;7.47;;;;;;;;;;6120574;23;20537;-92
2021/07/17 17:55:39;;;;;;;12.53;7.03;;;;;;;;;;6121598;23;20443;-90
2021/07/17 17:58:08;;;;;;;8.93;6.90;;;;;;;;;;6121754;23;20479;-86
2021/07/17 18:00:37;;;;;;;10.97;7.13;;;;;;;;;;6120166;23;20438;-87
2021/07/17 18:03:06;;;;;;;8.23;7.40;;;;;;;;;;6121610;23;20529;-89
2021/07/17 18:05:34;;;;;;;22.00;7.63;;;;;;;;;;6122249;23;20497;-89
2021/07/17 18:08:03;;;;;;;6.87;6.10;;;;;;;;;;6121108;23;20442;-89
2021/07/17 18:10:34;;;;;;;12.10;7.53;;;;;;;;;;6122963;23;20970;-88
2021/07/17 18:13:02;;;;;;;10.20;7.90;;;;;;;;;;6121625;23;20474;-88
2021/07/17 18:15:32;;;;;;;14.40;7.63;;;;;;;;;;6108517;23;20836;-89
2021/07/17 18:18:00;;;;;;;8.43;7.07;;;;;;;;;;6072915;23;21089;-89
2021/07/17 18:20:29;;;;;;;12.03;8.70;;;;;;;;;;6125288;23;20518;-90
2021/07/17 18:23:00;;;;;;;13.67;7.33;;;;;;;;;;6108831;23;20438;-90
2021/07/17 18:25:33;;;;;;;11.20;7.67;;;;;;;;;;6108522;23;20927;-91
2021/07/17 18:28:02;;;;;;;10.40;7.30;;;;;;;;;;6109312;23;20462;-90
2021/07/17 18:30:38;;;;;;;11.33;7.83;;;;;;;;;;6092255;23;20443;-90
2021/07/17 18:33:07;;;;;;;10.50;7.87;;;;;;;;;;6122120;23;20449;-91
2021/07/17 18:35:35;;;;;;;11.53;7.60;;;;;;;;;;6122036;23;20493;-91
2021/07/17 18:38:03;;;;;;;18.37;6.83;;;;;;;;;;6122354;23;20438;-90
2021/07/17 18:40:35;;;;;;;11.20;7.57;;;;;;;;;;6122181;23;20446;-92
2021/07/17 18:43:04;;;;;;;13.80;9.80;;;;;;;;;;6122417;23;20524;-92
2021/07/17 18:45:33;;;;;;;13.47;8.17;;;;;;;;;;6122040;23;20446;-91
2021/07/17 18:48:02;;;;;;;9.40;7.53;;;;;;;;;;6120785;23;20469;-91
2021/07/17 18:50:32;;;;;;;8.17;7.03;;;;;;;;;;6121549;23;20466;-92
2021/07/17 18:53:12;;;;;;;11.83;7.30;;;;;;;;;;6131137;23;20452;-92
2021/07/17 18:55:40;;;;;;;10.20;7.80;;;;;;;;;;6133015;23;20452;-92
2021/07/17 18:58:08;;;;;;;12.20;8.00;;;;;;;;;;6143318;23;20450;-91
2021/07/17 19:00:37;;;;;;;12.70;8.43;;;;;;;;;;6137795;23;20442;-92
2021/07/17 19:03:07;;;;;;;12.63;8.03;;;;;;;;;;6125800;23;20439;-92
2021/07/17 19:05:36;;;;;;;12.90;7.70;;;;;;;;;;6124890;23;20447;-92
2021/07/17 19:08:04;;;;;;;10.60;7.73;;;;;;;;;;6137808;23;20462;-93
2021/07/17 19:10:33;;;;;;;11.50;8.10;;;;;;;;;;6132915;23;20621;-93
2021/07/17 19:13:01;;;;;;;9.20;7.23;;;;;;;;;;6135832;23;20442;-92
2021/07/17 19:15:30;;;;;;;12.67;7.40;;;;;;;;;;6139530;23;20490;-93
2021/07/17 19:17:58;;;;;;;10.53;6.80;;;;;;;;;;6138565;23;20422;-93
2021/07/17 19:20:28;;;;;;;10.90;6.87;;;;;;;;;;6143227;23;20429;-91
2021/07/17 19:22:57;;;;;;;10.03;6.63;;;;;;;;;;6135298;23;20446;-92
2021/07/17 19:25:27;;;;;;;10.17;7.57;;;;;;;;;;6136005;23;20450;-93
2021/07/17 19:28:05;;;;;;;7.90;7.10;;;;;;;;;;6135349;23;20438;-92
2021/07/17 19:30:33;;;;;;;7.40;5.80;;;;;;;;;;6127795;23;20533;-92